createdAt,value
2023-01-19T00:00:33.089Z,17.27
2023-01-19T00:02:36.015Z,15.93
2023-01-19T00:04:38.870Z,16.97
2023-01-19T00:06:41.959Z,17.73
2023-01-19T00:08:45.863Z,16.33
2023-01-19T00:10:51.873Z,16.30
2023-01-19T00:12:54.786Z,16.63
2023-01-19T00:14:57.527Z,16.57
2023-01-19T00:17:01.654Z,16.73
2023-01-19T00:19:04.813Z,16.83
2023-01-19T00:21:07.963Z,17.23
2023-01-19T00:23:10.774Z,16.17
2023-01-19T00:25:13.736Z,16.63
2023-01-19T00:27:17.894Z,17.33
2023-01-19T00:29:21.279Z,18.13
2023-01-19T00:31:24.108Z,16.57
2023-01-19T00:33:26.858Z,16.23
2023-01-19T00:35:29.659Z,16.73
2023-01-19T00:37:32.430Z,17.50
2023-01-19T00:39:35.399Z,17.33
2023-01-19T00:41:56.057Z,16.93
2023-01-19T00:44:00.171Z,16.27
2023-01-19T00:46:03.129Z,18.03
2023-01-19T00:48:06.373Z,17.93
2023-01-19T00:50:12.446Z,17.53
2023-01-19T00:52:15.399Z,17.23
2023-01-19T00:54:18.286Z,20.23
2023-01-19T00:56:21.154Z,17.20
2023-01-19T00:58:23.990Z,18.13
2023-01-19T01:00:28.427Z,17.47
2023-01-19T01:02:31.296Z,17.67
2023-01-19T01:04:35.042Z,18.07
2023-01-19T01:06:37.735Z,17.67
2023-01-19T01:08:40.513Z,17.80
2023-01-19T01:10:43.222Z,18.07
2023-01-19T01:13:23.693Z,18.33
2023-01-19T01:15:11.449Z,18.10
2023-01-19T01:17:16.075Z,19.00
2023-01-19T01:19:18.875Z,18.90
2023-01-19T01:21:21.564Z,17.10
2023-01-19T01:23:24.554Z,17.83
2023-01-19T01:25:28.958Z,16.77
2023-01-19T01:27:31.756Z,17.50
2023-01-19T01:29:36.551Z,16.80
2023-01-19T01:31:39.558Z,17.10
2023-01-19T01:33:43.688Z,16.57
2023-01-19T01:35:46.454Z,15.00
2023-01-19T01:37:49.185Z,17.30
2023-01-19T01:39:51.921Z,15.97
2023-01-19T01:41:56.012Z,15.13
2023-01-19T01:44:01.933Z,15.60
2023-01-19T01:46:04.933Z,15.33
2023-01-19T01:48:11.291Z,15.07
2023-01-19T01:50:18.896Z,15.43
2023-01-19T01:52:23.862Z,15.47
2023-01-19T01:54:28.556Z,15.10
2023-01-19T01:56:35.851Z,14.07
2023-01-19T01:58:39.933Z,14.23
2023-01-19T02:01:00.983Z,14.27
2023-01-19T02:03:04.130Z,14.47
2023-01-19T02:05:12.546Z,15.10
2023-01-19T02:07:40.967Z,13.93
2023-01-19T02:10:01.053Z,14.17
2023-01-19T02:12:21.690Z,12.60
2023-01-19T02:14:24.664Z,12.93
2023-01-19T02:16:27.463Z,14.07
2023-01-19T02:18:33.081Z,13.27
2023-01-19T02:20:38.505Z,13.43
2023-01-19T02:22:48.603Z,13.43
2023-01-19T02:24:53.839Z,13.83
2023-01-19T02:26:57.582Z,12.40
2023-01-19T02:29:02.600Z,12.83
2023-01-19T02:31:06.173Z,12.83
2023-01-19T02:33:09.263Z,12.93
2023-01-19T02:35:12.563Z,13.27
2023-01-19T02:37:18.290Z,12.90
2023-01-19T02:39:26.062Z,12.47
2023-01-19T02:41:39.764Z,12.17
2023-01-19T02:43:43.738Z,13.70
2023-01-19T02:45:48.120Z,13.73
2023-01-19T02:47:53.170Z,12.90
2023-01-19T02:49:57.007Z,13.30
2023-01-19T02:52:01.198Z,13.53
2023-01-19T02:54:25.199Z,13.43
2023-01-19T02:56:57.880Z,13.23
2023-01-19T02:59:06.860Z,12.90
2023-01-19T03:01:19.418Z,13.53
2023-01-19T03:03:30.583Z,12.87
2023-01-19T03:05:46.315Z,14.27
2023-01-19T03:07:57.378Z,14.03
2023-01-19T03:10:06.996Z,13.27
2023-01-19T03:12:20.882Z,13.67
2023-01-19T03:14:28.489Z,13.57
2023-01-19T03:16:37.331Z,13.20
2023-01-19T03:18:43.659Z,13.33
2023-01-19T03:20:47.504Z,13.70
2023-01-19T03:22:54.736Z,13.10
2023-01-19T03:25:01.316Z,13.93
2023-01-19T03:27:10.006Z,13.93
2023-01-19T03:29:15.829Z,13.37
2023-01-19T03:31:21.578Z,13.80
2023-01-19T03:33:29.447Z,14.27
2023-01-19T03:35:35.624Z,13.97
2023-01-19T03:37:44.912Z,15.53
2023-01-19T03:39:48.052Z,13.50
2023-01-19T03:41:54.194Z,14.67
2023-01-19T03:43:58.345Z,14.07
2023-01-19T03:46:04.048Z,14.73
2023-01-19T03:48:08.116Z,15.03
2023-01-19T03:50:22.114Z,15.13
2023-01-19T03:52:29.311Z,14.87
2023-01-19T03:54:32.937Z,15.37
2023-01-19T03:56:36.101Z,14.97
2023-01-19T03:58:38.838Z,15.97
2023-01-19T04:00:42.022Z,16.67
2023-01-19T04:02:46.679Z,16.60
2023-01-19T04:04:50.119Z,16.63
2023-01-19T04:06:52.956Z,15.60
2023-01-19T04:08:55.990Z,16.60
2023-01-19T04:10:58.873Z,16.10
2023-01-19T04:13:03.009Z,15.80
2023-01-19T04:15:07.472Z,16.33
2023-01-19T04:17:10.252Z,15.87
2023-01-19T04:19:14.795Z,16.07
2023-01-19T04:21:17.968Z,15.87
2023-01-19T04:23:20.801Z,15.83
2023-01-19T04:25:23.617Z,16.13
2023-01-19T04:27:26.446Z,16.07
2023-01-19T04:29:29.191Z,17.07
2023-01-19T04:31:32.190Z,17.13
2023-01-19T04:33:35.760Z,17.27
2023-01-19T04:35:39.955Z,18.43
2023-01-19T04:37:42.654Z,18.10
2023-01-19T04:39:45.635Z,18.30
2023-01-19T04:41:48.345Z,17.50
2023-01-19T04:43:51.244Z,18.10
2023-01-19T04:45:55.934Z,17.87
2023-01-19T04:47:59.026Z,17.93
2023-01-19T04:50:01.813Z,18.03
2023-01-19T04:52:06.499Z,18.70
2023-01-19T04:54:09.789Z,18.07
2023-01-19T04:56:12.591Z,18.23
2023-01-19T04:58:15.755Z,18.00
2023-01-19T05:00:21.381Z,19.87
2023-01-19T05:02:24.329Z,18.90
2023-01-19T05:04:27.385Z,19.23
2023-01-19T05:06:30.304Z,18.47
2023-01-19T05:08:34.360Z,19.70
2023-01-19T05:10:37.239Z,19.37
2023-01-19T05:12:42.007Z,18.70
2023-01-19T05:14:45.096Z,20.33
2023-01-19T05:16:48.042Z,20.33
2023-01-19T05:18:50.881Z,21.00
2023-01-19T05:20:53.845Z,21.10
2023-01-19T05:22:57.119Z,20.53
2023-01-19T05:25:01.631Z,20.40
2023-01-19T05:27:04.767Z,20.87
2023-01-19T05:29:08.128Z,20.90
2023-01-19T05:31:11.253Z,20.80
2023-01-19T05:33:14.169Z,21.57
2023-01-19T05:35:20.208Z,22.03
2023-01-19T05:37:28.083Z,22.00
2023-01-19T05:39:31.125Z,21.40
2023-01-19T05:41:36.935Z,21.70
2023-01-19T05:43:39.957Z,21.90
2023-01-19T05:45:43.491Z,21.90
2023-01-19T05:47:46.456Z,21.93
2023-01-19T05:49:49.546Z,21.13
2023-01-19T05:51:52.557Z,22.83
2023-01-19T05:53:55.601Z,21.83
2023-01-19T05:56:01.576Z,22.20
2023-01-19T05:58:06.369Z,22.17
2023-01-19T06:00:10.955Z,23.93
2023-01-19T06:02:14.134Z,22.33
2023-01-19T06:04:17.194Z,24.00
2023-01-19T06:06:20.217Z,23.03
2023-01-19T06:08:23.348Z,24.63
2023-01-19T06:10:26.315Z,24.73
2023-01-19T06:12:29.242Z,24.53
2023-01-19T06:14:33.636Z,24.40
2023-01-19T06:16:36.585Z,25.07
2023-01-19T06:18:40.031Z,24.23
2023-01-19T06:20:42.964Z,25.17
2023-01-19T06:22:46.014Z,25.40
2023-01-19T06:24:49.019Z,23.83
2023-01-19T06:26:52.363Z,24.67
2023-01-19T06:28:55.282Z,25.30
2023-01-19T06:30:59.827Z,26.13
2023-01-19T06:33:18.142Z,25.37
2023-01-19T06:35:21.124Z,25.07
2023-01-19T06:37:26.987Z,26.57
2023-01-19T06:39:29.893Z,26.17
2023-01-19T06:41:33.311Z,25.97
2023-01-19T06:43:36.193Z,26.03
2023-01-19T06:45:39.509Z,25.87
2023-01-19T06:47:44.530Z,25.07
2023-01-19T06:49:58.792Z,27.33
2023-01-19T06:52:01.791Z,27.67
2023-01-19T06:54:05.652Z,27.87
2023-01-19T06:56:09.739Z,28.33
2023-01-19T06:58:13.750Z,27.13
2023-01-19T07:00:17.729Z,27.00
2023-01-19T07:02:26.557Z,26.93
2023-01-19T07:04:32.503Z,26.63
2023-01-19T07:06:35.523Z,27.93
2023-01-19T07:08:39.981Z,28.20
2023-01-19T07:11:26.445Z,27.73
2023-01-19T07:13:06.101Z,28.70
2023-01-19T07:15:11.669Z,28.37
2023-01-19T07:17:14.603Z,27.50
2023-01-19T07:19:17.601Z,27.90
2023-01-19T07:21:22.446Z,28.70
2023-01-19T07:23:25.554Z,27.33
2023-01-19T07:25:28.655Z,28.10
2023-01-19T07:27:31.709Z,28.27
2023-01-19T07:29:34.771Z,27.47
2023-01-19T07:31:38.068Z,29.40
2023-01-19T07:33:41.301Z,29.90
2023-01-19T07:35:48.254Z,30.63
2023-01-19T07:37:52.789Z,29.83
2023-01-19T07:39:55.927Z,29.87
2023-01-19T07:41:58.982Z,29.77
2023-01-19T07:44:02.002Z,29.13
2023-01-19T07:46:06.644Z,28.70
2023-01-19T07:48:10.019Z,29.70
2023-01-19T07:50:14.143Z,28.33
2023-01-19T07:52:17.447Z,29.53
2023-01-19T07:54:22.103Z,29.97
2023-01-19T07:56:27.928Z,27.90
2023-01-19T07:58:31.045Z,27.00
2023-01-19T08:00:35.221Z,28.23
2023-01-19T08:02:38.393Z,26.03
2023-01-19T08:04:41.721Z,25.63
2023-01-19T08:06:46.248Z,23.70
2023-01-19T08:08:49.783Z,24.33
2023-01-19T08:10:56.865Z,25.10
2023-01-19T08:13:00.326Z,23.77
2023-01-19T08:15:03.678Z,24.73
2023-01-19T08:17:06.765Z,23.57
2023-01-19T08:19:10.260Z,23.87
2023-01-19T08:21:13.475Z,22.77
2023-01-19T08:23:18.143Z,23.77
2023-01-19T08:25:21.473Z,23.13
2023-01-19T08:27:26.059Z,41.60
2023-01-19T08:29:30.742Z,22.77
2023-01-19T08:31:33.880Z,25.80
2023-01-19T08:33:37.138Z,24.23
2023-01-19T08:35:42.873Z,22.43
2023-01-19T08:37:45.870Z,22.07
2023-01-19T08:39:49.110Z,21.43
2023-01-19T08:41:52.905Z,22.03
2023-01-19T08:43:58.736Z,21.43
2023-01-19T08:46:01.821Z,20.30
2023-01-19T08:48:06.307Z,19.50
2023-01-19T08:50:11.477Z,19.27
2023-01-19T08:52:14.570Z,19.37
2023-01-19T08:54:18.727Z,18.43
2023-01-19T08:56:21.868Z,18.27
2023-01-19T08:58:25.197Z,18.20
2023-01-19T09:00:31.690Z,16.67
2023-01-19T09:02:34.959Z,18.37
2023-01-19T09:04:38.104Z,17.50
2023-01-19T09:06:41.777Z,17.37
2023-01-19T09:08:45.437Z,16.00
2023-01-19T09:10:50.163Z,18.20
2023-01-19T09:12:53.637Z,15.80
2023-01-19T09:14:59.681Z,17.13
2023-01-19T09:17:11.021Z,18.10
2023-01-19T09:19:56.022Z,16.27
2023-01-19T09:22:08.869Z,17.70
2023-01-19T09:24:38.131Z,15.43
2023-01-19T09:26:41.521Z,16.77
2023-01-19T09:28:47.609Z,16.37
2023-01-19T09:31:08.940Z,17.57
2023-01-19T09:33:59.111Z,16.10
2023-01-19T09:36:50.893Z,15.37
2023-01-19T09:41:34.110Z,15.80
2023-01-19T09:43:43.121Z,14.47
2023-01-19T09:45:53.412Z,15.17
2023-01-19T09:48:02.764Z,15.77
2023-01-19T09:50:35.100Z,15.30
2023-01-19T09:53:05.264Z,15.47
2023-01-19T09:55:38.332Z,13.77
2023-01-19T09:57:47.885Z,14.17
2023-01-19T09:59:51.833Z,14.37
2023-01-19T10:02:18.987Z,14.60
2023-01-19T10:04:38.464Z,14.07
2023-01-19T10:07:17.796Z,14.13
2023-01-19T10:09:53.388Z,13.83
2023-01-19T10:12:10.533Z,14.07
2023-01-19T10:14:29.134Z,14.27
2023-01-19T10:16:52.744Z,13.73
2023-01-19T10:19:42.116Z,14.17
2023-01-19T10:21:45.970Z,16.03
2023-01-19T10:26:43.738Z,15.30
2023-01-19T10:29:16.869Z,15.37
2023-01-19T10:41:37.927Z,16.47
2023-01-19T10:47:13.595Z,17.60
2023-01-19T10:49:44.244Z,16.17
2023-01-19T10:52:15.233Z,16.90
2023-01-19T10:54:40.963Z,17.00
2023-01-19T10:57:21.760Z,18.23
2023-01-19T11:00:47.149Z,18.93
2023-01-19T11:03:04.673Z,17.07
2023-01-19T11:05:25.203Z,16.40
2023-01-19T11:10:39.022Z,15.80
2023-01-19T11:12:47.870Z,17.70
2023-01-19T11:14:59.762Z,14.50
2023-01-19T11:17:27.561Z,15.17
2023-01-19T11:20:27.373Z,14.77
2023-01-19T11:26:23.106Z,13.27
2023-01-19T11:31:42.072Z,14.47
2023-01-19T11:48:05.798Z,11.60
2023-01-19T12:05:16.151Z,10.87
2023-01-19T12:08:15.546Z,10.57
2023-01-19T12:14:03.992Z,10.83
2023-01-19T12:16:39.365Z,10.43
2023-01-19T12:23:25.677Z,9.23
2023-01-19T12:30:07.897Z,5.90
2023-01-19T12:32:55.423Z,5.50
2023-01-19T12:39:05.005Z,8.77
2023-01-19T12:42:01.531Z,9.50
2023-01-19T12:44:45.671Z,9.70
2023-01-19T12:51:40.610Z,9.33
2023-01-19T13:09:19.771Z,12.77
2023-01-19T15:04:30.445Z,14.53
2023-01-19T16:08:50.353Z,17.43
2023-01-19T16:12:37.270Z,16.60
2023-01-19T16:35:25.547Z,16.93
2023-01-19T16:43:05.956Z,17.00
2023-01-19T17:12:48.543Z,18.13
2023-01-19T17:14:42.214Z,17.70
2023-01-19T17:21:14.424Z,17.87
2023-01-19T17:29:23.931Z,18.70
2023-01-19T17:48:54.644Z,21.57
2023-01-19T17:52:23.283Z,21.33
2023-01-19T18:04:21.726Z,20.97
2023-01-19T18:21:40.825Z,26.07
2023-01-19T18:23:53.094Z,27.47
2023-01-19T18:27:06.783Z,25.77
2023-01-19T18:29:32.567Z,26.17
2023-01-19T19:01:07.417Z,29.33
2023-01-19T19:03:19.952Z,27.93
2023-01-19T19:05:36.348Z,29.37
2023-01-19T19:08:26.274Z,27.27
2023-01-19T19:10:44.674Z,27.20
2023-01-19T19:12:53.957Z,30.80
2023-01-19T19:15:07.227Z,30.40
2023-01-19T19:17:18.109Z,28.67
2023-01-19T19:19:25.706Z,28.33
2023-01-19T19:21:32.962Z,31.10
2023-01-19T19:23:39.701Z,30.57
2023-01-19T19:25:43.028Z,29.20
2023-01-19T19:27:52.456Z,29.17
2023-01-19T19:30:05.865Z,27.40
2023-01-19T19:32:13.484Z,27.23
2023-01-19T19:34:24.682Z,27.97
2023-01-19T19:36:31.794Z,28.63
2023-01-19T19:38:49.228Z,29.20
2023-01-19T19:40:57.336Z,31.13
2023-01-19T19:43:00.437Z,32.90
2023-01-19T19:45:04.371Z,30.13
2023-01-19T19:47:07.877Z,30.97
2023-01-19T19:49:10.893Z,31.77
2023-01-19T19:51:18.805Z,31.43
2023-01-19T19:53:24.242Z,35.43
2023-01-19T19:55:27.596Z,39.60
2023-01-19T19:57:30.667Z,40.03
2023-01-19T19:59:33.852Z,43.63
2023-01-19T20:01:37.262Z,41.03
2023-01-19T20:03:40.894Z,42.07
2023-01-19T20:05:44.004Z,38.13
2023-01-19T20:07:49.121Z,35.73
2023-01-19T20:09:53.462Z,35.63
2023-01-19T20:11:56.543Z,36.67
2023-01-19T20:13:59.825Z,33.97
2023-01-19T20:16:04.455Z,35.90
2023-01-19T20:18:08.025Z,36.13
2023-01-19T20:20:12.885Z,37.27
2023-01-19T20:22:16.886Z,40.13
2023-01-19T20:24:21.930Z,40.03
2023-01-19T20:26:27.599Z,39.63
2023-01-19T20:28:30.781Z,40.07
2023-01-19T20:30:34.804Z,38.33
2023-01-19T20:32:41.905Z,40.53
2023-01-19T20:34:44.999Z,39.83
2023-01-19T20:36:50.251Z,37.77
2023-01-19T20:38:54.161Z,39.00
2023-01-19T20:40:58.589Z,38.23
2023-01-19T20:43:01.683Z,39.43
2023-01-19T20:45:05.615Z,38.03
2023-01-19T20:47:09.548Z,36.77
2023-01-19T20:49:13.127Z,38.03
2023-01-19T20:51:16.119Z,36.10
2023-01-19T20:53:19.197Z,36.97
2023-01-19T20:55:22.232Z,36.43
2023-01-19T20:57:26.761Z,46.58
2023-01-19T20:59:29.823Z,43.27
2023-01-19T21:01:33.056Z,41.37
2023-01-19T21:03:36.232Z,41.73
2023-01-19T21:05:39.187Z,41.57
2023-01-19T21:07:42.251Z,39.30
2023-01-19T21:09:45.232Z,42.13
2023-01-19T21:11:48.246Z,44.07
2023-01-19T21:13:56.034Z,42.73
2023-01-19T21:15:59.825Z,43.83
2023-01-19T21:18:03.015Z,46.57
2023-01-19T21:20:07.198Z,45.53
2023-01-19T21:22:18.084Z,45.60
2023-01-19T21:24:23.023Z,44.47
2023-01-19T21:26:29.671Z,45.33
2023-01-19T21:28:34.183Z,45.77
2023-01-19T21:30:49.210Z,44.80
2023-01-19T21:32:52.374Z,42.97
2023-01-19T21:34:55.380Z,42.17
2023-01-19T21:37:32.926Z,50.03
2023-01-19T21:39:39.814Z,48.30
2023-01-19T21:41:45.741Z,47.37
2023-01-19T21:43:48.925Z,43.77
2023-01-19T21:46:17.459Z,44.90
2023-01-19T21:48:20.854Z,53.00
2023-01-19T21:50:23.985Z,53.33
2023-01-19T21:52:27.045Z,48.53
2023-01-19T21:54:30.182Z,46.27
2023-01-19T21:56:34.032Z,49.80
2023-01-19T21:58:38.185Z,46.40
2023-01-19T22:00:41.505Z,47.10
2023-01-19T22:02:58.573Z,47.53
2023-01-19T22:05:07.623Z,47.37
2023-01-19T22:07:10.721Z,48.47
2023-01-19T22:09:13.847Z,45.97
2023-01-19T22:11:18.677Z,51.50
2023-01-19T22:13:22.167Z,51.03
2023-01-19T22:15:25.196Z,47.20
2023-01-19T22:17:28.662Z,51.83
2023-01-19T22:19:33.102Z,48.17
2023-01-19T22:21:38.475Z,52.63
2023-01-19T22:23:42.450Z,45.33
2023-01-19T22:25:45.618Z,45.57
2023-01-19T22:27:48.790Z,50.03
2023-01-19T22:29:51.912Z,45.10
2023-01-19T22:31:55.165Z,49.47
2023-01-19T22:33:58.373Z,44.30
2023-01-19T22:36:15.636Z,50.27
2023-01-19T22:38:18.522Z,52.73
2023-01-19T22:40:21.696Z,49.97
2023-01-19T22:42:24.715Z,47.67
2023-01-19T22:44:27.713Z,38.90
2023-01-19T22:46:33.404Z,46.47
2023-01-19T22:48:36.616Z,54.27
2023-01-19T22:50:40.887Z,41.80
2023-01-19T22:52:45.450Z,42.30
2023-01-19T22:54:52.860Z,42.60
2023-01-19T22:56:56.053Z,41.43
2023-01-19T22:59:00.075Z,43.43
2023-01-19T23:01:06.443Z,40.60
2023-01-19T23:03:09.665Z,38.63
2023-01-19T23:05:15.249Z,42.70
2023-01-19T23:07:18.611Z,40.10
2023-01-19T23:09:23.199Z,39.60
2023-01-19T23:11:30.625Z,41.73
2023-01-19T23:13:35.694Z,42.60
2023-01-19T23:15:40.265Z,41.10
2023-01-19T23:17:49.029Z,40.00
2023-01-19T23:19:53.541Z,38.13
2023-01-19T23:21:57.903Z,41.20
2023-01-19T23:24:08.811Z,40.00
2023-01-19T23:26:16.541Z,37.80
2023-01-19T23:28:22.374Z,38.37
2023-01-19T23:30:25.674Z,34.73
2023-01-19T23:32:31.239Z,34.07
2023-01-19T23:34:35.959Z,33.40
2023-01-19T23:36:41.147Z,31.93
2023-01-19T23:38:51.301Z,30.60
2023-01-19T23:40:58.610Z,32.30
2023-01-19T23:43:03.162Z,30.93
2023-01-19T23:45:09.697Z,30.50
2023-01-19T23:47:12.842Z,29.87
2023-01-19T23:49:19.430Z,29.13
2023-01-19T23:51:24.365Z,26.77
2023-01-19T23:53:28.550Z,28.03
2023-01-19T23:55:33.686Z,27.53
2023-01-19T23:57:36.993Z,28.43
2023-01-19T23:59:45.173Z,29.80
